sensor_id;sensor_type;location;lat;lon;timestamp;temperature;humidity
4530;DHT22;2277;51.626;7.516;2023-02-12T00:01:07;10.20;99.90
4530;DHT22;2277;51.626;7.516;2023-02-12T00:03:33;10.20;99.90
4530;DHT22;2277;51.626;7.516;2023-02-12T00:06:00;10.20;99.90
4530;DHT22;2277;51.626;7.516;2023-02-12T00:08:26;10.20;99.90
4530;DHT22;2277;51.626;7.516;2023-02-12T00:10:52;10.20;99.90
4530;DHT22;2277;51.626;7.516;2023-02-12T00:13:18;10.20;99.90
4530;DHT22;2277;51.626;7.516;2023-02-12T00:15:44;10.20;99.90
4530;DHT22;2277;51.626;7.516;2023-02-12T00:18:10;10.20;99.90
4530;DHT22;2277;51.626;7.516;2023-02-12T00:20:36;10.20;99.90
4530;DHT22;2277;51.626;7.516;2023-02-12T00:23:02;10.20;99.90
4530;DHT22;2277;51.626;7.516;2023-02-12T00:25:28;10.20;99.90
4530;DHT22;2277;51.626;7.516;2023-02-12T00:27:53;10.20;99.90
4530;DHT22;2277;51.626;7.516;2023-02-12T00:30:19;10.20;99.90
4530;DHT22;2277;51.626;7.516;2023-02-12T00:32:45;10.20;99.90
4530;DHT22;2277;51.626;7.516;2023-02-12T00:35:10;10.20;99.90
4530;DHT22;2277;51.626;7.516;2023-02-12T00:37:36;10.20;99.90
4530;DHT22;2277;51.626;7.516;2023-02-12T00:40:03;10.20;99.90
4530;DHT22;2277;51.626;7.516;2023-02-12T00:42:29;10.20;99.90
4530;DHT22;2277;51.626;7.516;2023-02-12T00:44:54;10.20;99.90
4530;DHT22;2277;51.626;7.516;2023-02-12T00:47:20;10.20;99.90
4530;DHT22;2277;51.626;7.516;2023-02-12T00:49:45;10.10;99.90
4530;DHT22;2277;51.626;7.516;2023-02-12T00:52:11;10.10;99.90
4530;DHT22;2277;51.626;7.516;2023-02-12T00:54:37;10.10;99.90
4530;DHT22;2277;51.626;7.516;2023-02-12T00:57:02;10.10;99.90
4530;DHT22;2277;51.626;7.516;2023-02-12T00:59:29;10.10;99.90
4530;DHT22;2277;51.626;7.516;2023-02-12T01:01:55;10.10;99.90
4530;DHT22;2277;51.626;7.516;2023-02-12T01:04:21;10.10;99.90
4530;DHT22;2277;51.626;7.516;2023-02-12T01:06:46;10.10;99.90
4530;DHT22;2277;51.626;7.516;2023-02-12T01:09:12;10.10;99.90
4530;DHT22;2277;51.626;7.516;2023-02-12T01:11:38;10.10;99.90
4530;DHT22;2277;51.626;7.516;2023-02-12T01:14:04;10.10;99.90
4530;DHT22;2277;51.626;7.516;2023-02-12T01:16:30;10.10;99.90
4530;DHT22;2277;51.626;7.516;2023-02-12T01:19:01;10.00;99.90
4530;DHT22;2277;51.626;7.516;2023-02-12T01:21:29;10.00;99.90
4530;DHT22;2277;51.626;7.516;2023-02-12T01:23:56;10.00;99.90
4530;DHT22;2277;51.626;7.516;2023-02-12T01:26:23;10.00;99.90
4530;DHT22;2277;51.626;7.516;2023-02-12T01:28:52;10.00;99.90
4530;DHT22;2277;51.626;7.516;2023-02-12T01:31:21;10.00;99.90
4530;DHT22;2277;51.626;7.516;2023-02-12T01:33:48;10.00;99.90
4530;DHT22;2277;51.626;7.516;2023-02-12T01:36:14;10.00;99.90
4530;DHT22;2277;51.626;7.516;2023-02-12T01:38:39;10.00;99.90
4530;DHT22;2277;51.626;7.516;2023-02-12T01:41:14;10.00;99.90
4530;DHT22;2277;51.626;7.516;2023-02-12T01:43:40;10.00;99.90
4530;DHT22;2277;51.626;7.516;2023-02-12T01:46:07;10.00;99.90
4530;DHT22;2277;51.626;7.516;2023-02-12T01:48:40;10.00;99.90
4530;DHT22;2277;51.626;7.516;2023-02-12T01:51:09;10.00;99.90
4530;DHT22;2277;51.626;7.516;2023-02-12T01:53:41;10.00;99.90
4530;DHT22;2277;51.626;7.516;2023-02-12T01:56:10;10.00;99.90
4530;DHT22;2277;51.626;7.516;2023-02-12T01:58:39;10.00;99.90
4530;DHT22;2277;51.626;7.516;2023-02-12T02:01:08;10.00;99.90
4530;DHT22;2277;51.626;7.516;2023-02-12T02:03:36;10.10;99.90
4530;DHT22;2277;51.626;7.516;2023-02-12T02:06:08;10.10;99.90
4530;DHT22;2277;51.626;7.516;2023-02-12T02:08:35;10.10;99.90
4530;DHT22;2277;51.626;7.516;2023-02-12T02:11:01;10.10;99.90
4530;DHT22;2277;51.626;7.516;2023-02-12T02:13:47;10.00;99.90
4530;DHT22;2277;51.626;7.516;2023-02-12T02:16:34;10.00;99.90
4530;DHT22;2277;51.626;7.516;2023-02-12T02:19:01;10.00;99.90
4530;DHT22;2277;51.626;7.516;2023-02-12T02:22:00;10.00;99.90
4530;DHT22;2277;51.626;7.516;2023-02-12T02:25:01;10.00;99.90
4530;DHT22;2277;51.626;7.516;2023-02-12T02:27:45;10.00;99.90
4530;DHT22;2277;51.626;7.516;2023-02-12T02:30:35;10.00;99.90
4530;DHT22;2277;51.626;7.516;2023-02-12T02:33:08;10.00;99.90
4530;DHT22;2277;51.626;7.516;2023-02-12T02:35:48;10.00;99.90
4530;DHT22;2277;51.626;7.516;2023-02-12T02:41:07;10.00;99.90
4530;DHT22;2277;51.626;7.516;2023-02-12T02:43:42;10.00;99.90
4530;DHT22;2277;51.626;7.516;2023-02-12T02:46:13;10.00;99.90
4530;DHT22;2277;51.626;7.516;2023-02-12T02:48:51;10.00;99.90
4530;DHT22;2277;51.626;7.516;2023-02-12T02:51:21;10.00;99.90
4530;DHT22;2277;51.626;7.516;2023-02-12T02:53:56;9.90;99.90
4530;DHT22;2277;51.626;7.516;2023-02-12T02:56:25;10.00;99.90
4530;DHT22;2277;51.626;7.516;2023-02-12T02:59:01;9.90;99.90
4530;DHT22;2277;51.626;7.516;2023-02-12T03:01:31;9.90;99.90
4530;DHT22;2277;51.626;7.516;2023-02-12T03:04:06;10.00;99.90
4530;DHT22;2277;51.626;7.516;2023-02-12T03:06:50;10.00;99.90
4530;DHT22;2277;51.626;7.516;2023-02-12T03:11:54;9.90;99.90
4530;DHT22;2277;51.626;7.516;2023-02-12T03:14:27;10.00;99.90
4530;DHT22;2277;51.626;7.516;2023-02-12T03:16:57;9.90;99.90
4530;DHT22;2277;51.626;7.516;2023-02-12T03:19:28;9.90;99.90
4530;DHT22;2277;51.626;7.516;2023-02-12T03:22:05;9.90;99.90
4530;DHT22;2277;51.626;7.516;2023-02-12T03:24:39;9.90;99.90
4530;DHT22;2277;51.626;7.516;2023-02-12T03:27:51;9.90;99.90
4530;DHT22;2277;51.626;7.516;2023-02-12T03:29:58;9.90;99.90
4530;DHT22;2277;51.626;7.516;2023-02-12T03:32:45;9.90;99.90
4530;DHT22;2277;51.626;7.516;2023-02-12T03:35:31;9.90;99.90
4530;DHT22;2277;51.626;7.516;2023-02-12T03:38:08;9.90;99.90
4530;DHT22;2277;51.626;7.516;2023-02-12T03:40:49;9.90;99.90
4530;DHT22;2277;51.626;7.516;2023-02-12T03:43:58;9.90;99.90
4530;DHT22;2277;51.626;7.516;2023-02-12T03:51:59;9.90;99.90
4530;DHT22;2277;51.626;7.516;2023-02-12T03:54:25;9.90;99.90
4530;DHT22;2277;51.626;7.516;2023-02-12T03:56:56;9.80;99.90
4530;DHT22;2277;51.626;7.516;2023-02-12T03:59:24;9.80;99.90
4530;DHT22;2277;51.626;7.516;2023-02-12T04:01:52;9.80;99.90
4530;DHT22;2277;51.626;7.516;2023-02-12T04:04:18;9.80;99.90
4530;DHT22;2277;51.626;7.516;2023-02-12T04:06:46;9.80;99.90
4530;DHT22;2277;51.626;7.516;2023-02-12T04:09:12;9.80;99.90
4530;DHT22;2277;51.626;7.516;2023-02-12T04:14:35;9.90;99.90
4530;DHT22;2277;51.626;7.516;2023-02-12T04:17:25;9.90;99.90
4530;DHT22;2277;51.626;7.516;2023-02-12T04:22:35;9.90;99.90
4530;DHT22;2277;51.626;7.516;2023-02-12T04:27:57;9.90;99.90
4530;DHT22;2277;51.626;7.516;2023-02-12T04:30:43;9.90;99.90
4530;DHT22;2277;51.626;7.516;2023-02-12T04:33:11;9.90;99.90
4530;DHT22;2277;51.626;7.516;2023-02-12T04:38:31;9.90;99.90
4530;DHT22;2277;51.626;7.516;2023-02-12T04:40:58;9.90;99.90
4530;DHT22;2277;51.626;7.516;2023-02-12T04:43:32;9.90;99.90
4530;DHT22;2277;51.626;7.516;2023-02-12T04:46:05;9.90;99.90
4530;DHT22;2277;51.626;7.516;2023-02-12T04:48:31;9.90;99.90
4530;DHT22;2277;51.626;7.516;2023-02-12T04:50:59;9.90;99.90
4530;DHT22;2277;51.626;7.516;2023-02-12T04:53:25;9.90;99.90
4530;DHT22;2277;51.626;7.516;2023-02-12T04:55:50;9.80;99.90
4530;DHT22;2277;51.626;7.516;2023-02-12T04:58:17;9.90;99.90
4530;DHT22;2277;51.626;7.516;2023-02-12T05:00:43;9.80;99.90
4530;DHT22;2277;51.626;7.516;2023-02-12T05:03:08;9.80;99.90
4530;DHT22;2277;51.626;7.516;2023-02-12T05:05:34;9.80;99.90
4530;DHT22;2277;51.626;7.516;2023-02-12T05:08:00;9.80;99.90
4530;DHT22;2277;51.626;7.516;2023-02-12T05:10:26;9.80;99.90
4530;DHT22;2277;51.626;7.516;2023-02-12T05:12:53;9.80;99.90
4530;DHT22;2277;51.626;7.516;2023-02-12T05:15:19;9.80;99.90
4530;DHT22;2277;51.626;7.516;2023-02-12T05:17:44;9.80;99.90
4530;DHT22;2277;51.626;7.516;2023-02-12T05:20:11;9.80;99.90
4530;DHT22;2277;51.626;7.516;2023-02-12T05:22:36;9.80;99.90
4530;DHT22;2277;51.626;7.516;2023-02-12T05:25:02;9.80;99.90
4530;DHT22;2277;51.626;7.516;2023-02-12T05:27:28;9.80;99.90
4530;DHT22;2277;51.626;7.516;2023-02-12T05:29:54;9.90;99.90
4530;DHT22;2277;51.626;7.516;2023-02-12T05:32:21;9.80;99.90
4530;DHT22;2277;51.626;7.516;2023-02-12T05:34:47;9.80;99.90
4530;DHT22;2277;51.626;7.516;2023-02-12T05:37:12;9.80;99.90
4530;DHT22;2277;51.626;7.516;2023-02-12T05:39:38;9.80;99.90
4530;DHT22;2277;51.626;7.516;2023-02-12T05:42:03;9.80;99.90
4530;DHT22;2277;51.626;7.516;2023-02-12T05:44:29;9.80;99.90
4530;DHT22;2277;51.626;7.516;2023-02-12T05:46:54;9.80;99.90
4530;DHT22;2277;51.626;7.516;2023-02-12T05:49:20;9.80;99.90
4530;DHT22;2277;51.626;7.516;2023-02-12T05:51:46;9.80;99.90
4530;DHT22;2277;51.626;7.516;2023-02-12T05:54:11;9.80;99.90
4530;DHT22;2277;51.626;7.516;2023-02-12T05:56:43;9.80;99.90
4530;DHT22;2277;51.626;7.516;2023-02-12T05:59:14;9.80;99.90
4530;DHT22;2277;51.626;7.516;2023-02-12T06:01:42;9.80;99.90
4530;DHT22;2277;51.626;7.516;2023-02-12T06:04:14;9.70;99.90
4530;DHT22;2277;51.626;7.516;2023-02-12T06:06:40;9.70;99.90
4530;DHT22;2277;51.626;7.516;2023-02-12T06:09:10;9.70;99.90
4530;DHT22;2277;51.626;7.516;2023-02-12T06:11:36;9.80;99.90
4530;DHT22;2277;51.626;7.516;2023-02-12T06:14:07;9.70;99.90
4530;DHT22;2277;51.626;7.516;2023-02-12T06:16:34;9.70;99.90
4530;DHT22;2277;51.626;7.516;2023-02-12T06:19:01;9.70;99.90
4530;DHT22;2277;51.626;7.516;2023-02-12T06:21:27;9.80;99.90
4530;DHT22;2277;51.626;7.516;2023-02-12T06:23:53;9.80;99.90
4530;DHT22;2277;51.626;7.516;2023-02-12T06:26:20;9.80;99.90
4530;DHT22;2277;51.626;7.516;2023-02-12T06:28:46;9.80;99.90
4530;DHT22;2277;51.626;7.516;2023-02-12T06:33:42;9.80;99.90
4530;DHT22;2277;51.626;7.516;2023-02-12T06:36:07;9.80;99.90
4530;DHT22;2277;51.626;7.516;2023-02-12T06:38:33;9.70;99.90
4530;DHT22;2277;51.626;7.516;2023-02-12T06:41:01;9.70;99.90
4530;DHT22;2277;51.626;7.516;2023-02-12T06:43:27;9.70;99.90
4530;DHT22;2277;51.626;7.516;2023-02-12T06:45:52;9.70;99.90
4530;DHT22;2277;51.626;7.516;2023-02-12T06:48:18;9.70;99.90
4530;DHT22;2277;51.626;7.516;2023-02-12T06:50:43;9.70;99.90
4530;DHT22;2277;51.626;7.516;2023-02-12T06:53:09;9.70;99.90
4530;DHT22;2277;51.626;7.516;2023-02-12T06:55:34;9.70;99.90
4530;DHT22;2277;51.626;7.516;2023-02-12T06:58:00;9.70;99.90
4530;DHT22;2277;51.626;7.516;2023-02-12T07:00:26;9.70;99.90
4530;DHT22;2277;51.626;7.516;2023-02-12T07:02:55;9.70;99.90
4530;DHT22;2277;51.626;7.516;2023-02-12T07:05:21;9.70;99.90
4530;DHT22;2277;51.626;7.516;2023-02-12T07:07:47;9.70;99.90
4530;DHT22;2277;51.626;7.516;2023-02-12T07:10:12;9.70;99.90
4530;DHT22;2277;51.626;7.516;2023-02-12T07:12:38;9.70;99.90
4530;DHT22;2277;51.626;7.516;2023-02-12T07:15:05;9.70;99.90
4530;DHT22;2277;51.626;7.516;2023-02-12T07:17:31;9.80;99.90
4530;DHT22;2277;51.626;7.516;2023-02-12T07:19:56;9.80;99.90
4530;DHT22;2277;51.626;7.516;2023-02-12T07:22:22;9.80;99.90
4530;DHT22;2277;51.626;7.516;2023-02-12T07:24:47;9.80;99.90
4530;DHT22;2277;51.626;7.516;2023-02-12T07:27:13;9.80;99.90
4530;DHT22;2277;51.626;7.516;2023-02-12T07:29:39;9.80;99.90
4530;DHT22;2277;51.626;7.516;2023-02-12T07:32:05;9.80;99.90
4530;DHT22;2277;51.626;7.516;2023-02-12T07:34:31;9.80;99.90
4530;DHT22;2277;51.626;7.516;2023-02-12T07:36:56;9.80;99.90
4530;DHT22;2277;51.626;7.516;2023-02-12T07:39:22;9.80;99.90
4530;DHT22;2277;51.626;7.516;2023-02-12T07:41:48;9.80;99.90
4530;DHT22;2277;51.626;7.516;2023-02-12T07:44:13;9.80;99.90
4530;DHT22;2277;51.626;7.516;2023-02-12T07:46:44;9.90;99.90
4530;DHT22;2277;51.626;7.516;2023-02-12T07:49:13;9.90;99.90
4530;DHT22;2277;51.626;7.516;2023-02-12T07:51:39;9.90;99.90
4530;DHT22;2277;51.626;7.516;2023-02-12T07:54:05;9.90;99.90
4530;DHT22;2277;51.626;7.516;2023-02-12T07:56:34;10.00;99.90
4530;DHT22;2277;51.626;7.516;2023-02-12T07:59:06;10.00;99.90
4530;DHT22;2277;51.626;7.516;2023-02-12T08:01:37;10.00;99.90
4530;DHT22;2277;51.626;7.516;2023-02-12T08:04:14;10.00;99.90
4530;DHT22;2277;51.626;7.516;2023-02-12T08:06:43;10.00;99.90
4530;DHT22;2277;51.626;7.516;2023-02-12T08:09:11;10.00;99.90
4530;DHT22;2277;51.626;7.516;2023-02-12T08:11:38;10.10;99.90
4530;DHT22;2277;51.626;7.516;2023-02-12T08:14:04;10.10;99.90
4530;DHT22;2277;51.626;7.516;2023-02-12T08:16:31;10.10;99.90
4530;DHT22;2277;51.626;7.516;2023-02-12T08:19:00;10.10;99.90
4530;DHT22;2277;51.626;7.516;2023-02-12T08:21:27;10.10;99.90
4530;DHT22;2277;51.626;7.516;2023-02-12T08:23:53;10.10;99.90
4530;DHT22;2277;51.626;7.516;2023-02-12T08:26:24;10.20;99.90
4530;DHT22;2277;51.626;7.516;2023-02-12T08:28:58;10.20;99.90
4530;DHT22;2277;51.626;7.516;2023-02-12T08:31:27;10.20;99.90
4530;DHT22;2277;51.626;7.516;2023-02-12T08:33:54;10.20;99.90
4530;DHT22;2277;51.626;7.516;2023-02-12T08:36:22;10.20;99.90
4530;DHT22;2277;51.626;7.516;2023-02-12T08:38:48;10.20;99.90
4530;DHT22;2277;51.626;7.516;2023-02-12T08:41:19;10.20;99.90
4530;DHT22;2277;51.626;7.516;2023-02-12T08:43:45;10.20;99.90
4530;DHT22;2277;51.626;7.516;2023-02-12T08:46:18;10.20;99.90
4530;DHT22;2277;51.626;7.516;2023-02-12T08:48:44;10.30;99.90
4530;DHT22;2277;51.626;7.516;2023-02-12T08:51:12;10.30;99.90
4530;DHT22;2277;51.626;7.516;2023-02-12T08:53:40;10.20;99.90
4530;DHT22;2277;51.626;7.516;2023-02-12T08:56:08;10.40;99.90
4530;DHT22;2277;51.626;7.516;2023-02-12T08:58:35;10.30;99.90
4530;DHT22;2277;51.626;7.516;2023-02-12T09:01:02;10.30;99.90
4530;DHT22;2277;51.626;7.516;2023-02-12T09:03:28;10.30;99.90
4530;DHT22;2277;51.626;7.516;2023-02-12T09:05:54;10.40;99.90
4530;DHT22;2277;51.626;7.516;2023-02-12T09:08:20;10.40;99.90
4530;DHT22;2277;51.626;7.516;2023-02-12T09:10:45;10.40;99.90
4530;DHT22;2277;51.626;7.516;2023-02-12T09:13:12;10.40;99.90
4530;DHT22;2277;51.626;7.516;2023-02-12T09:15:39;10.40;99.90
4530;DHT22;2277;51.626;7.516;2023-02-12T09:18:05;10.40;99.90
4530;DHT22;2277;51.626;7.516;2023-02-12T09:20:31;10.40;99.90
4530;DHT22;2277;51.626;7.516;2023-02-12T09:22:58;10.40;99.90
4530;DHT22;2277;51.626;7.516;2023-02-12T09:25:25;10.50;99.90
4530;DHT22;2277;51.626;7.516;2023-02-12T09:27:50;10.50;99.90
4530;DHT22;2277;51.626;7.516;2023-02-12T09:30:16;10.50;99.90
4530;DHT22;2277;51.626;7.516;2023-02-12T09:32:42;10.50;99.90
4530;DHT22;2277;51.626;7.516;2023-02-12T09:35:08;10.50;99.90
4530;DHT22;2277;51.626;7.516;2023-02-12T09:37:37;10.50;99.90
4530;DHT22;2277;51.626;7.516;2023-02-12T09:40:03;10.60;99.90
4530;DHT22;2277;51.626;7.516;2023-02-12T09:42:51;10.60;99.90
4530;DHT22;2277;51.626;7.516;2023-02-12T09:45:38;10.60;99.90
4530;DHT22;2277;51.626;7.516;2023-02-12T09:50:42;10.60;99.90
4530;DHT22;2277;51.626;7.516;2023-02-12T09:53:24;10.60;99.90
4530;DHT22;2277;51.626;7.516;2023-02-12T09:55:52;10.60;99.90
4530;DHT22;2277;51.626;7.516;2023-02-12T09:58:44;10.60;99.90
4530;DHT22;2277;51.626;7.516;2023-02-12T10:01:13;10.60;99.90
4530;DHT22;2277;51.626;7.516;2023-02-12T10:03:39;10.70;99.90
4530;DHT22;2277;51.626;7.516;2023-02-12T10:06:10;10.80;99.90
4530;DHT22;2277;51.626;7.516;2023-02-12T10:11:37;10.90;99.90
4530;DHT22;2277;51.626;7.516;2023-02-12T10:23:09;10.90;99.90
4530;DHT22;2277;51.626;7.516;2023-02-12T10:25:49;11.00;99.90
4530;DHT22;2277;51.626;7.516;2023-02-12T10:28:27;11.00;99.90
4530;DHT22;2277;51.626;7.516;2023-02-12T10:30:57;11.10;99.90
4530;DHT22;2277;51.626;7.516;2023-02-12T10:33:38;11.10;99.90
4530;DHT22;2277;51.626;7.516;2023-02-12T10:39:27;11.20;99.90
4530;DHT22;2277;51.626;7.516;2023-02-12T10:42:00;11.20;99.90
4530;DHT22;2277;51.626;7.516;2023-02-12T10:44:27;11.30;99.90
4530;DHT22;2277;51.626;7.516;2023-02-12T10:46:53;11.40;99.90
4530;DHT22;2277;51.626;7.516;2023-02-12T10:49:19;11.40;99.90
4530;DHT22;2277;51.626;7.516;2023-02-12T10:52:08;11.40;99.90
4530;DHT22;2277;51.626;7.516;2023-02-12T10:54:46;11.50;99.90
4530;DHT22;2277;51.626;7.516;2023-02-12T10:57:20;11.50;99.90
4530;DHT22;2277;51.626;7.516;2023-02-12T10:59:49;11.50;99.90
4530;DHT22;2277;51.626;7.516;2023-02-12T11:04:53;11.60;99.90
4530;DHT22;2277;51.626;7.516;2023-02-12T11:07:20;11.70;99.90
4530;DHT22;2277;51.626;7.516;2023-02-12T11:09:48;11.70;99.90
4530;DHT22;2277;51.626;7.516;2023-02-12T11:15:26;11.80;99.90
4530;DHT22;2277;51.626;7.516;2023-02-12T11:18:06;11.80;99.90
4530;DHT22;2277;51.626;7.516;2023-02-12T11:20:39;11.80;99.90
4530;DHT22;2277;51.626;7.516;2023-02-12T11:23:25;11.80;99.90
4530;DHT22;2277;51.626;7.516;2023-02-12T11:26:00;11.90;99.90
4530;DHT22;2277;51.626;7.516;2023-02-12T11:28:27;11.90;99.90
4530;DHT22;2277;51.626;7.516;2023-02-12T11:35:53;11.90;99.90
4530;DHT22;2277;51.626;7.516;2023-02-12T11:38:23;11.90;99.90
4530;DHT22;2277;51.626;7.516;2023-02-12T11:40:52;12.00;99.90
4530;DHT22;2277;51.626;7.516;2023-02-12T11:43:18;12.00;99.90
4530;DHT22;2277;51.626;7.516;2023-02-12T11:45:48;12.00;99.90
4530;DHT22;2277;51.626;7.516;2023-02-12T11:48:19;12.00;99.90
4530;DHT22;2277;51.626;7.516;2023-02-12T11:50:49;12.00;99.90
4530;DHT22;2277;51.626;7.516;2023-02-12T11:53:23;12.10;99.90
4530;DHT22;2277;51.626;7.516;2023-02-12T11:56:01;12.10;99.90
4530;DHT22;2277;51.626;7.516;2023-02-12T11:58:27;12.10;99.90
4530;DHT22;2277;51.626;7.516;2023-02-12T12:03:59;12.10;99.90
4530;DHT22;2277;51.626;7.516;2023-02-12T12:06:33;12.20;99.90
4530;DHT22;2277;51.626;7.516;2023-02-12T12:14:36;12.20;99.90
4530;DHT22;2277;51.626;7.516;2023-02-12T12:20:46;12.20;99.90
4530;DHT22;2277;51.626;7.516;2023-02-12T12:23:28;12.20;99.90
4530;DHT22;2277;51.626;7.516;2023-02-12T12:26:43;12.20;99.90
4530;DHT22;2277;51.626;7.516;2023-02-12T12:29:02;12.20;99.90
4530;DHT22;2277;51.626;7.516;2023-02-12T12:31:34;12.30;99.90
4530;DHT22;2277;51.626;7.516;2023-02-12T12:34:34;12.30;99.90
4530;DHT22;2277;51.626;7.516;2023-02-12T12:40:19;12.20;99.90
4530;DHT22;2277;51.626;7.516;2023-02-12T12:43:02;12.10;99.90
4530;DHT22;2277;51.626;7.516;2023-02-12T12:45:56;12.20;99.90
4530;DHT22;2277;51.626;7.516;2023-02-12T12:51:35;12.10;99.90
4530;DHT22;2277;51.626;7.516;2023-02-12T13:04:31;12.20;99.90
4530;DHT22;2277;51.626;7.516;2023-02-12T13:09:55;12.20;99.90
4530;DHT22;2277;51.626;7.516;2023-02-12T13:15:52;12.20;99.90
4530;DHT22;2277;51.626;7.516;2023-02-12T13:18:35;12.20;99.90
4530;DHT22;2277;51.626;7.516;2023-02-12T13:23:52;12.20;99.90
4530;DHT22;2277;51.626;7.516;2023-02-12T13:26:23;12.20;99.90
4530;DHT22;2277;51.626;7.516;2023-02-12T13:29:03;12.20;99.90
4530;DHT22;2277;51.626;7.516;2023-02-12T13:31:33;12.20;99.90
4530;DHT22;2277;51.626;7.516;2023-02-12T13:34:06;12.20;99.90
4530;DHT22;2277;51.626;7.516;2023-02-12T13:36:35;12.20;99.90
4530;DHT22;2277;51.626;7.516;2023-02-12T13:39:28;12.20;99.90
4530;DHT22;2277;51.626;7.516;2023-02-12T13:42:19;12.20;99.90
4530;DHT22;2277;51.626;7.516;2023-02-12T13:45:00;12.20;99.90
4530;DHT22;2277;51.626;7.516;2023-02-12T13:50:32;12.20;99.90
4530;DHT22;2277;51.626;7.516;2023-02-12T14:01:02;12.20;99.90
4530;DHT22;2277;51.626;7.516;2023-02-12T14:03:30;12.10;99.90
4530;DHT22;2277;51.626;7.516;2023-02-12T14:06:16;12.10;99.90
4530;DHT22;2277;51.626;7.516;2023-02-12T14:09:17;12.10;99.90
4530;DHT22;2277;51.626;7.516;2023-02-12T14:11:52;12.10;99.90
4530;DHT22;2277;51.626;7.516;2023-02-12T14:25:00;12.10;99.90
4530;DHT22;2277;51.626;7.516;2023-02-12T14:27:34;12.10;99.90
4530;DHT22;2277;51.626;7.516;2023-02-12T14:35:29;12.10;99.90
4530;DHT22;2277;51.626;7.516;2023-02-12T14:37:58;12.20;99.90
4530;DHT22;2277;51.626;7.516;2023-02-12T14:40:36;12.20;99.90
4530;DHT22;2277;51.626;7.516;2023-02-12T14:45:49;12.00;99.90
4530;DHT22;2277;51.626;7.516;2023-02-12T14:48:52;12.00;99.90
4530;DHT22;2277;51.626;7.516;2023-02-12T14:51:25;11.90;99.90
4530;DHT22;2277;51.626;7.516;2023-02-12T14:53:56;11.90;99.90
4530;DHT22;2277;51.626;7.516;2023-02-12T14:56:23;11.90;99.90
4530;DHT22;2277;51.626;7.516;2023-02-12T14:58:53;11.80;99.90
4530;DHT22;2277;51.626;7.516;2023-02-12T15:01:29;11.80;99.90
4530;DHT22;2277;51.626;7.516;2023-02-12T15:03:57;11.90;99.90
4530;DHT22;2277;51.626;7.516;2023-02-12T15:06:47;11.90;99.90
4530;DHT22;2277;51.626;7.516;2023-02-12T15:09:23;11.90;99.90
4530;DHT22;2277;51.626;7.516;2023-02-12T15:12:02;11.80;99.90
4530;DHT22;2277;51.626;7.516;2023-02-12T15:14:35;11.80;99.90
4530;DHT22;2277;51.626;7.516;2023-02-12T15:17:10;11.70;99.90
4530;DHT22;2277;51.626;7.516;2023-02-12T15:19:47;11.70;99.90
4530;DHT22;2277;51.626;7.516;2023-02-12T15:24:49;11.70;99.90
4530;DHT22;2277;51.626;7.516;2023-02-12T15:27:16;11.60;99.90
4530;DHT22;2277;51.626;7.516;2023-02-12T15:29:46;11.50;99.90
4530;DHT22;2277;51.626;7.516;2023-02-12T15:32:26;11.40;99.90
4530;DHT22;2277;51.626;7.516;2023-02-12T15:34:53;11.50;99.90
4530;DHT22;2277;51.626;7.516;2023-02-12T15:37:23;11.50;99.90
4530;DHT22;2277;51.626;7.516;2023-02-12T15:39:52;11.40;99.90
4530;DHT22;2277;51.626;7.516;2023-02-12T15:42:37;11.30;99.90
4530;DHT22;2277;51.626;7.516;2023-02-12T15:47:39;11.10;99.90
4530;DHT22;2277;51.626;7.516;2023-02-12T15:50:10;11.10;99.90
4530;DHT22;2277;51.626;7.516;2023-02-12T15:52:38;11.00;99.90
4530;DHT22;2277;51.626;7.516;2023-02-12T15:55:06;11.00;99.90
4530;DHT22;2277;51.626;7.516;2023-02-12T15:57:37;11.00;99.90
4530;DHT22;2277;51.626;7.516;2023-02-12T16:00:08;11.00;99.90
4530;DHT22;2277;51.626;7.516;2023-02-12T16:02:35;11.00;99.90
4530;DHT22;2277;51.626;7.516;2023-02-12T16:05:03;11.10;99.90
4530;DHT22;2277;51.626;7.516;2023-02-12T16:07:34;11.10;99.90
4530;DHT22;2277;51.626;7.516;2023-02-12T16:10:01;11.10;99.90
4530;DHT22;2277;51.626;7.516;2023-02-12T16:12:30;11.20;99.90
4530;DHT22;2277;51.626;7.516;2023-02-12T16:14:58;11.20;99.90
4530;DHT22;2277;51.626;7.516;2023-02-12T16:17:30;11.20;99.90
4530;DHT22;2277;51.626;7.516;2023-02-12T16:20:01;11.30;99.90
4530;DHT22;2277;51.626;7.516;2023-02-12T16:22:35;11.30;99.90
4530;DHT22;2277;51.626;7.516;2023-02-12T16:25:03;11.40;99.90
4530;DHT22;2277;51.626;7.516;2023-02-12T16:27:32;11.40;99.90
4530;DHT22;2277;51.626;7.516;2023-02-12T16:30:01;11.40;99.90
4530;DHT22;2277;51.626;7.516;2023-02-12T16:32:39;11.50;99.90
4530;DHT22;2277;51.626;7.516;2023-02-12T16:40:16;11.40;99.90
4530;DHT22;2277;51.626;7.516;2023-02-12T16:50:32;11.40;99.90
4530;DHT22;2277;51.626;7.516;2023-02-12T16:53:01;11.40;99.90
4530;DHT22;2277;51.626;7.516;2023-02-12T16:55:27;11.40;99.90
4530;DHT22;2277;51.626;7.516;2023-02-12T16:57:52;11.40;99.90
4530;DHT22;2277;51.626;7.516;2023-02-12T17:00:18;11.40;99.90
4530;DHT22;2277;51.626;7.516;2023-02-12T17:02:44;11.40;99.90
4530;DHT22;2277;51.626;7.516;2023-02-12T17:05:12;11.40;99.90
4530;DHT22;2277;51.626;7.516;2023-02-12T17:07:41;11.40;99.90
4530;DHT22;2277;51.626;7.516;2023-02-12T17:10:10;11.40;99.90
4530;DHT22;2277;51.626;7.516;2023-02-12T17:12:44;11.40;99.90
4530;DHT22;2277;51.626;7.516;2023-02-12T17:15:18;11.40;99.90
4530;DHT22;2277;51.626;7.516;2023-02-12T17:17:45;11.40;99.90
4530;DHT22;2277;51.626;7.516;2023-02-12T17:20:11;11.40;99.90
4530;DHT22;2277;51.626;7.516;2023-02-12T17:22:37;11.40;99.90
4530;DHT22;2277;51.626;7.516;2023-02-12T17:25:03;11.40;99.90
4530;DHT22;2277;51.626;7.516;2023-02-12T17:27:28;11.40;99.90
4530;DHT22;2277;51.626;7.516;2023-02-12T17:29:54;11.40;99.90
4530;DHT22;2277;51.626;7.516;2023-02-12T17:32:19;11.30;99.90
4530;DHT22;2277;51.626;7.516;2023-02-12T17:34:45;11.30;99.90
4530;DHT22;2277;51.626;7.516;2023-02-12T17:37:11;11.30;99.90
4530;DHT22;2277;51.626;7.516;2023-02-12T17:39:37;11.30;99.90
4530;DHT22;2277;51.626;7.516;2023-02-12T17:42:03;11.30;99.90
4530;DHT22;2277;51.626;7.516;2023-02-12T17:44:30;11.30;99.90
4530;DHT22;2277;51.626;7.516;2023-02-12T17:46:56;11.20;99.90
4530;DHT22;2277;51.626;7.516;2023-02-12T17:49:23;11.20;99.90
4530;DHT22;2277;51.626;7.516;2023-02-12T17:51:49;11.20;99.90
4530;DHT22;2277;51.626;7.516;2023-02-12T17:54:15;11.20;99.90
4530;DHT22;2277;51.626;7.516;2023-02-12T17:56:42;11.30;99.90
4530;DHT22;2277;51.626;7.516;2023-02-12T17:59:08;11.30;99.90
4530;DHT22;2277;51.626;7.516;2023-02-12T18:01:34;11.30;99.90
4530;DHT22;2277;51.626;7.516;2023-02-12T18:04:00;11.30;99.90
4530;DHT22;2277;51.626;7.516;2023-02-12T18:06:30;11.30;99.90
4530;DHT22;2277;51.626;7.516;2023-02-12T18:08:57;11.30;99.90
4530;DHT22;2277;51.626;7.516;2023-02-12T18:11:23;11.30;99.90
4530;DHT22;2277;51.626;7.516;2023-02-12T18:13:52;11.30;99.90
4530;DHT22;2277;51.626;7.516;2023-02-12T18:16:20;11.30;99.90
4530;DHT22;2277;51.626;7.516;2023-02-12T18:18:46;11.30;99.90
4530;DHT22;2277;51.626;7.516;2023-02-12T18:21:13;11.30;99.90
4530;DHT22;2277;51.626;7.516;2023-02-12T18:23:39;11.30;99.90
4530;DHT22;2277;51.626;7.516;2023-02-12T18:26:15;11.20;99.90
4530;DHT22;2277;51.626;7.516;2023-02-12T18:28:41;11.20;99.90
4530;DHT22;2277;51.626;7.516;2023-02-12T18:31:08;11.20;99.90
4530;DHT22;2277;51.626;7.516;2023-02-12T18:33:34;11.10;99.90
4530;DHT22;2277;51.626;7.516;2023-02-12T18:36:06;11.10;99.90
4530;DHT22;2277;51.626;7.516;2023-02-12T18:38:34;11.10;99.90
4530;DHT22;2277;51.626;7.516;2023-02-12T18:41:07;11.10;99.90
4530;DHT22;2277;51.626;7.516;2023-02-12T18:43:34;11.10;99.90
4530;DHT22;2277;51.626;7.516;2023-02-12T18:46:08;11.00;99.90